createdAt,value
2022-11-20T00:03:00.259Z,100584.06
2022-11-20T00:07:52.086Z,100640.72
2022-11-20T00:12:43.621Z,100576.44
2022-11-20T00:17:35.312Z,100555.38
2022-11-20T00:22:26.839Z,100558.47
2022-11-20T00:27:18.406Z,100632.44
2022-11-20T00:32:10.017Z,100598.88
2022-11-20T00:37:01.592Z,100589.81
2022-11-20T00:41:53.112Z,100587.25
2022-11-20T00:46:44.683Z,100613.78
2022-11-20T00:51:36.322Z,100578.44
2022-11-20T00:56:28.353Z,100615.53
2022-11-20T01:01:26.392Z,100631.78
2022-11-20T01:06:24.543Z,100625.81
2022-11-20T01:11:25.334Z,100629.41
2022-11-20T01:16:19.832Z,100628.22
2022-11-20T01:21:23.921Z,100619.59
2022-11-20T01:26:19.346Z,100571.09
2022-11-20T01:31:17.310Z,100610.91
2022-11-20T01:36:09.832Z,100622.19
2022-11-20T01:41:01.586Z,100562.78
2022-11-20T01:46:01.090Z,100613.28
2022-11-20T01:50:55.592Z,100520.50
2022-11-20T01:55:52.379Z,100549.81
2022-11-20T02:00:44.015Z,100583.66
2022-11-20T02:06:06.855Z,100510.28
2022-11-20T02:10:58.533Z,100564.94
2022-11-20T02:15:50.945Z,100586.88
2022-11-20T02:20:47.776Z,100584.63
2022-11-20T02:25:42.118Z,100525.25
2022-11-20T02:30:33.664Z,100579.63
2022-11-20T02:35:26.094Z,100579.13
2022-11-20T02:40:17.854Z,100550.63
2022-11-20T02:45:09.905Z,100543.66
2022-11-20T02:50:01.640Z,100571.00
2022-11-20T02:54:54.205Z,100520.31
2022-11-20T02:59:45.733Z,100564.59
2022-11-20T03:04:37.402Z,100497.06
2022-11-20T03:09:28.966Z,100567.31
2022-11-20T03:14:20.534Z,100559.66
2022-11-20T03:19:13.064Z,100566.16
2022-11-20T03:24:05.393Z,100564.03
2022-11-20T03:28:59.908Z,100556.59
2022-11-20T03:33:51.776Z,100557.06
2022-11-20T03:38:43.487Z,100535.56
2022-11-20T03:43:35.892Z,100482.13
2022-11-20T03:48:28.383Z,100546.84
2022-11-20T03:53:20.800Z,100527.66
2022-11-20T03:58:12.493Z,100537.69
2022-11-20T04:03:04.858Z,100544.22
2022-11-20T04:07:56.491Z,100544.22
2022-11-20T04:12:48.111Z,100492.16
2022-11-20T04:17:39.689Z,100531.00
2022-11-20T04:22:31.196Z,100516.34
2022-11-20T04:27:22.857Z,100529.97
2022-11-20T04:32:14.364Z,100475.59
2022-11-20T04:37:06.122Z,100528.50
2022-11-20T04:42:16.332Z,100531.38
2022-11-20T04:47:07.955Z,100538.84
2022-11-20T04:51:59.555Z,100541.38
2022-11-20T04:56:51.267Z,100521.28
2022-11-20T05:01:43.993Z,100551.13
2022-11-20T05:06:35.615Z,100551.69
2022-11-20T05:11:30.833Z,100549.44
2022-11-20T05:16:24.949Z,100537.09
2022-11-20T05:21:17.861Z,100536.16
2022-11-20T05:26:15.039Z,100544.13
2022-11-20T05:31:09.931Z,100527.78
2022-11-20T05:36:02.275Z,100454.03
2022-11-20T05:40:55.417Z,100522.88
2022-11-20T05:45:56.136Z,100527.09
2022-11-20T05:50:48.869Z,100465.63
2022-11-20T05:55:40.522Z,100438.66
2022-11-20T06:00:32.044Z,100537.28
2022-11-20T06:05:23.683Z,100486.34
2022-11-20T06:10:15.298Z,100460.81
2022-11-20T06:15:07.772Z,100535.47
2022-11-20T06:19:59.389Z,100446.25
2022-11-20T06:24:51.693Z,100527.69
2022-11-20T06:29:43.308Z,100525.72
2022-11-20T06:34:35.847Z,100476.28
2022-11-20T06:39:27.420Z,100532.19
2022-11-20T06:44:18.957Z,100539.19
2022-11-20T06:49:10.526Z,100547.97
2022-11-20T06:54:03.017Z,100547.31
2022-11-20T06:58:54.569Z,100544.91
2022-11-20T07:03:50.028Z,100547.78
2022-11-20T07:08:44.486Z,100266.00
2022-11-20T07:13:37.140Z,100481.53
2022-11-20T07:18:29.037Z,100566.56
2022-11-20T07:23:20.979Z,100558.13
2022-11-20T07:28:12.570Z,100410.19
2022-11-20T07:33:04.113Z,100573.84
2022-11-20T07:37:55.654Z,100566.56
2022-11-20T07:42:54.881Z,100397.25
2022-11-20T07:47:46.704Z,100521.81
2022-11-20T07:52:39.236Z,100513.34
2022-11-20T07:57:31.873Z,100559.59
2022-11-20T08:02:24.398Z,100573.06
2022-11-20T08:07:16.050Z,100520.09
2022-11-20T08:12:27.381Z,100559.66
2022-11-20T08:17:19.004Z,100560.19
2022-11-20T08:22:10.757Z,100560.84
2022-11-20T08:27:02.343Z,100556.28
2022-11-20T08:31:55.757Z,100561.41
2022-11-20T08:36:47.390Z,100571.34
2022-11-20T08:41:39.006Z,100433.31
2022-11-20T08:46:44.853Z,100499.41
2022-11-20T08:51:38.028Z,100545.59
2022-11-20T08:56:29.594Z,100458.41
2022-11-20T09:01:22.706Z,100547.94
2022-11-20T09:06:14.649Z,100570.13
2022-11-20T09:11:07.012Z,100505.34
2022-11-20T09:16:02.425Z,100559.81
2022-11-20T09:20:58.628Z,100482.25
2022-11-20T09:25:50.419Z,100547.91
2022-11-20T09:30:42.010Z,100542.00
2022-11-20T09:35:34.247Z,100535.22
2022-11-20T09:40:30.405Z,100532.44
2022-11-20T09:45:50.653Z,100536.13
2022-11-20T09:51:19.945Z,100538.81
2022-11-20T09:56:16.980Z,100536.09
2022-11-20T10:01:22.048Z,100535.56
2022-11-20T10:06:18.027Z,100521.22
2022-11-20T10:11:46.016Z,100538.19
2022-11-20T10:16:56.235Z,100519.78
2022-11-20T10:21:53.717Z,100528.78
2022-11-20T10:27:04.465Z,100519.28
2022-11-20T10:32:04.610Z,100444.28
2022-11-20T10:37:05.201Z,100485.81
2022-11-20T10:41:58.777Z,100427.28
2022-11-20T10:46:53.805Z,100454.88
2022-11-20T10:52:27.846Z,100465.28
2022-11-20T10:57:47.631Z,100465.47
2022-11-20T11:02:50.142Z,100464.09
2022-11-20T11:07:43.437Z,100372.88
2022-11-20T11:12:36.908Z,100393.03
2022-11-20T11:17:34.712Z,100427.53
2022-11-20T11:22:34.390Z,100421.69
2022-11-20T11:27:29.402Z,100432.44
2022-11-20T11:32:27.763Z,100426.06
2022-11-20T11:37:24.959Z,100338.13
2022-11-20T11:42:20.349Z,100404.78
2022-11-20T11:47:26.878Z,100395.47
2022-11-20T11:52:22.057Z,100378.19
2022-11-20T11:57:45.369Z,100390.22
2022-11-20T12:02:46.037Z,100377.09
2022-11-20T12:07:47.691Z,100345.53
2022-11-20T12:12:45.934Z,100280.91
2022-11-20T12:17:37.601Z,100348.13
2022-11-20T12:22:44.616Z,100347.81
2022-11-20T12:28:07.421Z,100341.28
2022-11-20T12:33:30.233Z,100338.28
2022-11-20T12:38:30.821Z,100324.03
2022-11-20T12:43:44.004Z,100191.56
2022-11-20T12:49:09.743Z,100316.34
2022-11-20T12:54:25.533Z,100308.09
2022-11-20T12:59:40.656Z,100281.75
2022-11-20T13:04:35.165Z,100279.06
2022-11-20T13:09:28.450Z,100271.81
2022-11-20T13:14:43.404Z,100122.66
2022-11-20T13:19:35.413Z,100255.41
2022-11-20T13:24:32.063Z,100245.28
2022-11-20T13:29:23.662Z,100234.28
2022-11-20T13:34:26.843Z,100231.56
2022-11-20T13:39:45.023Z,100218.72
2022-11-20T13:44:43.824Z,100211.81
2022-11-20T13:49:44.860Z,100200.66
2022-11-20T13:54:39.603Z,100200.09
2022-11-20T13:59:34.297Z,100183.78
2022-11-20T14:04:37.194Z,100163.69
2022-11-20T14:09:31.571Z,100172.59
2022-11-20T14:14:31.424Z,100183.78
2022-11-20T14:19:28.668Z,100160.50
2022-11-20T14:24:25.854Z,100145.59
2022-11-20T14:29:25.550Z,100066.41
2022-11-20T14:34:21.451Z,100134.00
2022-11-20T14:39:21.105Z,100116.34
2022-11-20T14:44:12.709Z,100099.44
2022-11-20T14:49:05.732Z,100103.69
2022-11-20T14:53:57.349Z,100088.44
2022-11-20T14:58:56.958Z,100097.50
2022-11-20T15:04:01.573Z,100089.28
2022-11-20T15:08:53.723Z,100083.84
2022-11-20T15:13:45.369Z,100089.03
2022-11-20T15:18:44.858Z,100084.00
2022-11-20T15:23:36.593Z,100058.06
2022-11-20T15:28:40.744Z,100077.19
2022-11-20T15:33:33.536Z,100069.94
2022-11-20T15:38:25.138Z,100055.69
2022-11-20T15:43:16.736Z,100047.41
2022-11-20T15:48:15.729Z,100037.22
2022-11-20T15:53:09.154Z,100028.09
2022-11-20T15:58:00.804Z,100017.88
2022-11-20T16:02:52.791Z,99994.22
2022-11-20T16:07:44.986Z,100000.47
2022-11-20T16:12:55.664Z,99941.88
2022-11-20T16:17:47.295Z,99989.28
2022-11-20T16:22:38.928Z,99843.81
2022-11-20T16:27:30.514Z,99983.47
2022-11-20T16:32:22.067Z,99987.47
2022-11-20T16:37:13.663Z,99976.47
2022-11-20T16:42:05.380Z,99798.78
2022-11-20T16:46:56.953Z,99878.38
2022-11-20T16:51:48.628Z,99950.81
2022-11-20T16:56:40.219Z,99951.41
2022-11-20T17:01:32.898Z,99901.28
2022-11-20T17:06:27.469Z,99925.13
2022-11-20T17:11:19.977Z,99912.72
2022-11-20T17:16:17.495Z,99904.28
2022-11-20T17:21:09.104Z,99875.44
2022-11-20T17:26:06.771Z,99885.44
2022-11-20T17:31:02.858Z,99873.44
2022-11-20T17:35:54.411Z,99858.81
2022-11-20T17:40:46.262Z,99857.19
2022-11-20T17:45:37.879Z,99848.38
2022-11-20T17:50:29.449Z,99790.44
2022-11-20T17:55:21.845Z,99803.47
2022-11-20T18:00:17.130Z,99815.53
2022-11-20T18:05:08.917Z,99786.44
2022-11-20T18:10:00.527Z,99738.38
2022-11-20T18:14:52.166Z,99755.19
2022-11-20T18:20:01.107Z,99792.63
2022-11-20T18:24:58.377Z,99775.63
2022-11-20T18:29:51.944Z,99753.97
2022-11-20T18:34:44.027Z,99723.94
2022-11-20T18:39:37.044Z,99782.59
2022-11-20T18:44:50.264Z,99765.53
2022-11-20T18:49:50.784Z,99714.94
2022-11-20T18:54:42.513Z,99611.66
2022-11-20T18:59:34.089Z,99602.03
2022-11-20T19:04:26.000Z,99702.44
2022-11-20T19:09:17.923Z,99660.78
2022-11-20T19:14:09.892Z,99593.13
2022-11-20T19:19:03.726Z,99742.97
2022-11-20T19:23:58.340Z,99720.00
2022-11-20T19:28:50.291Z,99737.94
2022-11-20T19:33:42.095Z,99732.78
2022-11-20T19:38:33.821Z,99684.78
2022-11-20T19:43:25.659Z,99703.06
2022-11-20T19:48:17.274Z,99731.16
2022-11-20T19:53:11.244Z,99721.28
2022-11-20T19:58:03.931Z,99674.66
2022-11-20T20:02:55.612Z,99711.75
2022-11-20T20:07:47.308Z,99718.69
2022-11-20T20:12:38.956Z,99717.09
2022-11-20T20:17:30.564Z,99690.09
2022-11-20T20:22:22.125Z,99725.75
2022-11-20T20:27:13.706Z,99698.44
2022-11-20T20:32:05.919Z,99707.75
2022-11-20T20:36:57.807Z,99516.44
2022-11-20T20:41:49.848Z,99721.34
2022-11-20T20:46:41.946Z,99703.75
2022-11-20T20:51:34.096Z,99671.66
2022-11-20T20:56:25.986Z,99731.50
2022-11-20T21:01:19.588Z,99739.13
2022-11-20T21:06:11.953Z,99736.38
2022-11-20T21:11:14.841Z,99751.41
2022-11-20T21:16:07.350Z,99755.91
2022-11-20T21:21:18.265Z,99590.75
2022-11-20T21:26:10.169Z,99769.47
2022-11-20T21:31:18.378Z,99771.66
2022-11-20T21:36:13.301Z,99750.34
2022-11-20T21:41:06.914Z,99772.41
